Time;durP1;ratioP1;P1;durP2;ratioP2;P2;SDS_P1;SDS_P2;PMS_P1;PMS_P2;Temp;Humidity;BMP_temperature;BMP_pressure;BME280_temperature;BME280_humidity;BME280_pressure;Samples;Min_cycle;Max_cycle;Signal;HPM_P1;HPM_P2
2023/03/12 00:00:45;;;;;;;6.32;1.67;;;-0.10;99.90;;;;;;4995906;28;20046;-61
2023/03/12 00:03:11;;;;;;;3.72;1.75;;;-0.10;99.90;;;;;;4981336;28;20422;-62
2023/03/12 00:05:43;;;;;;;6.20;1.88;;;-0.20;99.90;;;;;;5002138;28;20104;-61
2023/03/12 00:08:10;;;;;;;4.88;1.50;;;-0.30;99.90;;;;;;5005395;28;20500;-61
2023/03/12 00:10:38;;;;;;;3.13;1.60;;;-0.30;99.90;;;;;;4971681;28;20046;-62
2023/03/12 00:13:06;;;;;;;7.65;1.73;;;-0.40;99.90;;;;;;4971359;28;20131;-61
2023/03/12 00:15:36;;;;;;;5.35;1.92;;;-0.50;99.90;;;;;;4988518;28;20038;-61
2023/03/12 00:18:02;;;;;;;6.00;2.05;;;-0.50;99.90;;;;;;4990539;28;20061;-61
2023/03/12 00:20:28;;;;;;;2.67;1.50;;;-0.60;99.90;;;;;;4985950;28;20555;-62
2023/03/12 00:22:54;;;;;;;4.15;1.38;;;-0.60;99.90;;;;;;4991550;28;20042;-62
2023/03/12 00:25:20;;;;;;;4.70;1.65;;;-0.60;99.90;;;;;;4974264;28;20382;-61
2023/03/12 00:27:45;;;;;;;7.95;1.98;;;-0.70;99.90;;;;;;4988811;28;20073;-61
2023/03/12 00:30:11;;;;;;;4.93;1.77;;;-0.70;99.90;;;;;;5000416;28;20048;-61
2023/03/12 00:32:37;;;;;;;8.15;1.63;;;-0.70;99.90;;;;;;4988171;28;20452;-61
2023/03/12 00:35:04;;;;;;;5.07;2.22;;;-0.70;99.90;;;;;;5003144;28;20037;-61
2023/03/12 00:37:32;;;;;;;4.07;1.83;;;-0.60;99.90;;;;;;4994760;28;20061;-61
2023/03/12 00:39:58;;;;;;;2.97;1.50;;;-0.50;99.90;;;;;;4993106;28;20042;-61
2023/03/12 00:42:24;;;;;;;6.68;2.05;;;-0.50;99.90;;;;;;4974192;28;20050;-61
2023/03/12 00:44:50;;;;;;;3.72;2.17;;;-0.50;99.90;;;;;;4989029;28;20396;-61
2023/03/12 00:47:15;;;;;;;3.75;1.65;;;-0.50;99.90;;;;;;4969850;28;20045;-61
2023/03/12 00:49:44;;;;;;;4.38;1.73;;;-0.60;99.90;;;;;;4971052;28;20042;-61
2023/03/12 00:52:11;;;;;;;3.53;1.92;;;-0.60;99.90;;;;;;4971536;28;20049;-61
2023/03/12 00:54:38;;;;;;;4.88;2.05;;;-0.70;99.90;;;;;;4989767;28;20488;-61
2023/03/12 00:57:05;;;;;;;6.55;1.50;;;-0.70;99.90;;;;;;4988520;28;20108;-61
2023/03/12 00:59:31;;;;;;;1.40;1.27;;;-0.70;99.90;;;;;;4986835;28;20411;-61
2023/03/12 01:01:57;;;;;;;13.05;1.75;;;-0.70;99.90;;;;;;4987368;28;20100;-61
2023/03/12 01:04:22;;;;;;;4.55;1.67;;;-0.60;99.90;;;;;;4983035;28;20132;-61
2023/03/12 01:06:48;;;;;;;6.40;1.95;;;-0.60;99.90;;;;;;4971262;28;20886;-61
2023/03/12 01:09:14;;;;;;;4.38;1.85;;;-0.60;99.90;;;;;;4977197;28;20344;-61
2023/03/12 01:11:40;;;;;;;7.18;1.92;;;-0.60;99.90;;;;;;4988190;28;20073;-62
2023/03/12 01:14:07;;;;;;;6.78;2.25;;;-0.60;99.90;;;;;;4988634;28;20378;-61
2023/03/12 01:16:33;;;;;;;5.45;1.98;;;-0.60;99.90;;;;;;4986394;28;20042;-61
2023/03/12 01:19:01;;;;;;;4.03;1.63;;;-0.70;99.90;;;;;;4988550;28;20053;-62
2023/03/12 01:21:28;;;;;;;5.45;2.00;;;-0.70;99.90;;;;;;4987548;28;20042;-61
2023/03/12 01:23:55;;;;;;;4.43;1.48;;;-0.70;99.90;;;;;;4988562;28;20058;-61
2023/03/12 01:26:21;;;;;;;7.85;2.13;;;-0.70;99.90;;;;;;4986976;28;20043;-62
2023/03/12 01:28:47;;;;;;;10.00;2.20;;;-0.70;99.90;;;;;;4978532;28;20065;-61
2023/03/12 01:31:15;;;;;;;3.10;1.60;;;-0.80;99.90;;;;;;4996224;28;20042;-61
2023/03/12 01:33:48;;;;;;;13.05;2.00;;;-0.80;99.90;;;;;;4990681;28;20062;-61
2023/03/12 01:36:26;;;;;;;3.90;1.67;;;-0.70;99.90;;;;;;4992654;28;20042;-61
2023/03/12 01:38:54;;;;;;;6.60;1.60;;;-0.80;99.90;;;;;;4990962;28;20062;-61
2023/03/12 01:41:21;;;;;;;5.43;1.73;;;-0.80;99.90;;;;;;4992952;28;20504;-62
2023/03/12 01:43:47;;;;;;;4.25;1.45;;;-0.90;99.90;;;;;;4991903;28;20456;-61
2023/03/12 01:46:19;;;;;;;5.68;1.23;;;-0.90;99.90;;;;;;4991666;28;20054;-61
2023/03/12 01:49:07;;;;;;;2.97;1.50;;;-1.00;99.90;;;;;;4992363;28;20046;-61
2023/03/12 01:51:45;;;;;;;2.28;1.60;;;-1.00;99.90;;;;;;4989270;28;20521;-61
2023/03/12 01:54:41;;;;;;;3.35;1.70;;;-1.10;99.90;;;;;;4992011;28;20493;-61
2023/03/12 01:57:12;;;;;;;10.52;1.73;;;-1.20;99.90;;;;;;4992273;28;20377;-61
2023/03/12 01:59:48;;;;;;;6.68;1.67;;;-1.20;99.90;;;;;;4990505;28;20038;-61
2023/03/12 02:02:15;;;;;;;5.90;1.70;;;-1.20;99.90;;;;;;4978645;28;20882;-61
2023/03/12 02:04:44;;;;;;;5.97;1.95;;;-1.30;99.90;;;;;;4990632;28;20046;-61
2023/03/12 02:07:13;;;;;;;3.80;1.80;;;-1.30;99.90;;;;;;4979798;28;20053;-61
2023/03/12 02:09:44;;;;;;;8.30;1.75;;;-1.40;99.90;;;;;;4990783;28;20332;-61
2023/03/12 02:12:10;;;;;;;6.53;1.90;;;-1.40;99.90;;;;;;4986616;28;20405;-61
2023/03/12 02:14:37;;;;;;;11.73;2.03;;;-1.40;99.90;;;;;;5004828;28;20057;-61
2023/03/12 02:17:04;;;;;;;4.57;1.98;;;-1.40;99.90;;;;;;4991337;28;20042;-61
2023/03/12 02:19:54;;;;;;;2.63;1.77;;;-1.30;99.90;;;;;;4991405;28;20074;-61
2023/03/12 02:22:21;;;;;;;8.38;2.30;;;-1.30;99.90;;;;;;4990389;28;20054;-61
2023/03/12 02:24:54;;;;;;;4.53;2.38;;;-1.30;99.90;;;;;;4989271;28;20054;-61
2023/03/12 02:27:20;;;;;;;5.07;2.13;;;-1.30;99.90;;;;;;4991495;28;20505;-61
2023/03/12 02:29:47;;;;;;;3.95;2.40;;;-1.20;99.90;;;;;;4990772;28;20121;-61
2023/03/12 02:32:35;;;;;;;5.13;2.10;;;-1.20;99.90;;;;;;4991671;28;20492;-61
2023/03/12 02:35:02;;;;;;;9.88;2.28;;;-1.20;99.90;;;;;;4972217;28;20425;-61
2023/03/12 02:37:28;;;;;;;9.63;2.85;;;-1.10;99.90;;;;;;4981902;28;20046;-61
2023/03/12 02:40:08;;;;;;;2.95;1.92;;;-1.00;99.90;;;;;;4992514;28;20054;-61
2023/03/12 02:42:34;;;;;;;8.70;2.60;;;-1.00;99.90;;;;;;4988584;28;20030;-62
2023/03/12 02:45:02;;;;;;;5.82;2.60;;;-0.90;99.90;;;;;;4991164;28;20555;-61
2023/03/12 02:47:27;;;;;;;8.20;2.03;;;-0.90;99.90;;;;;;4989165;28;20049;-61
2023/03/12 02:49:53;;;;;;;7.60;2.50;;;-0.90;99.90;;;;;;5001057;28;20599;-61
2023/03/12 02:52:19;;;;;;;4.50;1.83;;;-0.80;99.90;;;;;;4989395;28;20034;-61
2023/03/12 02:54:44;;;;;;;2.67;1.92;;;-0.80;99.90;;;;;;4990195;28;20563;-62
2023/03/12 02:57:10;;;;;;;9.43;2.00;;;-0.80;99.90;;;;;;4990579;28;20038;-61
2023/03/12 02:59:36;;;;;;;11.55;2.22;;;-0.70;99.90;;;;;;4994825;28;20038;-61
2023/03/12 03:02:03;;;;;;;8.13;2.67;;;-0.80;99.90;;;;;;4991208;28;20046;-62
2023/03/12 03:04:30;;;;;;;8.55;2.17;;;-0.80;99.90;;;;;;4988684;28;20551;-61
2023/03/12 03:06:55;;;;;;;8.07;2.42;;;-0.80;99.90;;;;;;4986624;28;20132;-62
2023/03/12 03:09:23;;;;;;;7.03;2.45;;;-0.80;99.90;;;;;;4972012;28;20232;-62
2023/03/12 03:11:49;;;;;;;3.97;2.38;;;-0.90;99.90;;;;;;4999316;28;20054;-62
2023/03/12 03:14:16;;;;;;;2.45;2.25;;;-0.80;99.90;;;;;;4989667;28;20053;-61
2023/03/12 03:16:42;;;;;;;6.53;2.60;;;-0.80;99.90;;;;;;4989500;28;20034;-62
2023/03/12 03:19:08;;;;;;;4.05;2.20;;;-0.80;99.90;;;;;;4972773;28;20054;-61
2023/03/12 03:21:34;;;;;;;4.97;2.00;;;-0.80;99.90;;;;;;4988627;28;20046;-61
2023/03/12 03:23:59;;;;;;;4.97;1.83;;;-0.80;99.90;;;;;;4990690;28;20575;-61
2023/03/12 03:26:26;;;;;;;3.65;2.10;;;-0.80;99.90;;;;;;4988618;28;20187;-61
2023/03/12 03:28:51;;;;;;;2.88;2.15;;;-0.80;99.90;;;;;;4990246;28;20046;-61
2023/03/12 03:31:17;;;;;;;6.80;2.55;;;-0.80;99.90;;;;;;4981986;28;20512;-61
2023/03/12 03:33:44;;;;;;;8.98;2.33;;;-0.70;99.90;;;;;;4998374;28;20408;-61
2023/03/12 03:36:10;;;;;;;7.05;2.30;;;-0.70;99.90;;;;;;4994003;28;20155;-61
2023/03/12 03:38:36;;;;;;;5.18;2.40;;;-0.70;99.90;;;;;;4971259;28;20160;-61
2023/03/12 03:41:02;;;;;;;5.80;2.40;;;-0.70;99.90;;;;;;4992094;28;20583;-61
2023/03/12 03:43:28;;;;;;;12.68;2.70;;;-0.70;99.90;;;;;;4971564;28;20089;-61
2023/03/12 03:45:58;;;;;;;6.53;2.15;;;-0.70;99.90;;;;;;4990055;28;20085;-61
2023/03/12 03:48:24;;;;;;;7.20;2.70;;;-0.70;99.90;;;;;;4988332;28;20096;-62
2023/03/12 03:50:50;;;;;;;5.15;2.63;;;-0.60;99.90;;;;;;4989522;28;20488;-61
2023/03/12 03:53:18;;;;;;;4.28;2.83;;;-0.60;99.90;;;;;;4989392;28;20043;-61
2023/03/12 03:55:44;;;;;;;2.22;2.08;;;-0.60;99.90;;;;;;4988757;28;20160;-61
2023/03/12 03:58:10;;;;;;;2.58;2.00;;;-0.50;99.90;;;;;;4989862;28;20046;-61
2023/03/12 04:00:36;;;;;;;3.88;2.30;;;-0.50;99.90;;;;;;4987707;28;20096;-61
2023/03/12 04:03:02;;;;;;;4.65;2.97;;;-0.50;99.90;;;;;;4981620;28;20050;-61
2023/03/12 04:05:28;;;;;;;7.43;2.05;;;-0.50;99.90;;;;;;4987838;28;20578;-61
2023/03/12 04:07:55;;;;;;;3.85;2.35;;;-0.40;99.90;;;;;;4989075;28;20050;-61
2023/03/12 04:10:23;;;;;;;5.32;2.92;;;-0.40;99.90;;;;;;4987126;28;20057;-61
2023/03/12 04:12:49;;;;;;;7.43;2.33;;;-0.30;99.90;;;;;;4989599;28;20038;-61
2023/03/12 04:15:15;;;;;;;5.22;2.42;;;-0.20;99.90;;;;;;4982916;28;20052;-61
2023/03/12 04:17:41;;;;;;;2.15;1.50;;;-0.20;99.90;;;;;;4990062;28;20556;-61
2023/03/12 04:20:09;;;;;;;2.75;1.67;;;-0.30;99.90;;;;;;4989701;28;20118;-61
2023/03/12 04:22:35;;;;;;;5.82;2.30;;;-0.10;99.90;;;;;;4987919;28;20465;-62
2023/03/12 04:25:01;;;;;;;8.68;2.03;;;-0.10;99.90;;;;;;4989068;28;21032;-61
2023/03/12 04:27:27;;;;;;;7.18;2.00;;;-0.10;99.90;;;;;;4970195;28;20085;-61
2023/03/12 04:29:53;;;;;;;5.68;2.08;;;0.00;99.90;;;;;;4994265;28;20148;-61
2023/03/12 04:32:18;;;;;;;3.97;1.70;;;-0.10;99.90;;;;;;4989875;28;20058;-61
2023/03/12 04:34:44;;;;;;;5.38;1.98;;;0.00;99.90;;;;;;4975008;28;20082;-61
2023/03/12 04:37:12;;;;;;;7.43;1.65;;;0.00;99.90;;;;;;4989074;28;20050;-61
2023/03/12 04:39:39;;;;;;;5.53;2.08;;;0.00;99.90;;;;;;4987255;28;20490;-61
2023/03/12 04:42:05;;;;;;;4.72;2.33;;;0.10;99.90;;;;;;4989103;28;20042;-61
2023/03/12 04:44:31;;;;;;;4.22;2.30;;;0.00;99.90;;;;;;4987274;28;20051;-61
2023/03/12 04:46:56;;;;;;;5.82;2.80;;;0.00;99.90;;;;;;4977010;28;20392;-61
2023/03/12 04:49:22;;;;;;;5.20;2.05;;;0.00;99.90;;;;;;4978358;28;20051;-61
2023/03/12 04:51:48;;;;;;;4.95;2.25;;;0.10;99.90;;;;;;4970049;28;20034;-61
2023/03/12 04:54:14;;;;;;;5.53;1.73;;;0.00;99.90;;;;;;4991182;28;20042;-61
2023/03/12 04:56:39;;;;;;;4.40;2.28;;;0.00;99.90;;;;;;4987162;28;20461;-61
2023/03/12 04:59:05;;;;;;;6.15;1.90;;;0.10;99.90;;;;;;4988546;28;20049;-61
2023/03/12 05:01:34;;;;;;;7.85;2.20;;;0.10;99.90;;;;;;4987701;28;20054;-61
2023/03/12 05:04:01;;;;;;;2.80;2.03;;;0.10;99.90;;;;;;4988756;28;20127;-61
2023/03/12 05:06:27;;;;;;;6.95;1.80;;;0.20;99.90;;;;;;4986538;28;20053;-61
2023/03/12 05:08:52;;;;;;;4.15;1.95;;;0.10;99.90;;;;;;4987843;28;20116;-61
2023/03/12 05:11:19;;;;;;;6.32;2.33;;;0.10;99.90;;;;;;4989386;28;20493;-61
2023/03/12 05:13:45;;;;;;;3.80;1.88;;;0.10;99.90;;;;;;4986869;28;20045;-62
2023/03/12 05:16:13;;;;;;;5.65;2.15;;;0.20;99.90;;;;;;4988431;28;20046;-61
2023/03/12 05:18:39;;;;;;;3.30;1.92;;;0.10;99.90;;;;;;4969424;28;20058;-62
2023/03/12 05:21:12;;;;;;;3.63;2.30;;;0.20;99.90;;;;;;4993578;28;20554;-61
2023/03/12 05:23:38;;;;;;;7.07;2.85;;;0.20;99.90;;;;;;4979630;28;20161;-61
2023/03/12 05:26:05;;;;;;;5.10;2.28;;;0.20;99.90;;;;;;4970208;28;20087;-61
2023/03/12 05:28:31;;;;;;;4.97;2.10;;;0.20;99.90;;;;;;4988144;28;20496;-61
2023/03/12 05:30:58;;;;;;;7.47;2.40;;;0.20;99.90;;;;;;4986928;28;20050;-61
2023/03/12 05:33:26;;;;;;;5.13;2.40;;;0.20;99.90;;;;;;4988589;28;20133;-61
2023/03/12 05:35:52;;;;;;;5.15;2.45;;;0.20;99.90;;;;;;4985999;28;20062;-61
2023/03/12 05:38:18;;;;;;;7.28;3.30;;;0.20;99.90;;;;;;4988336;28;20050;-61
2023/03/12 05:40:52;;;;;;;4.72;2.78;;;0.30;99.90;;;;;;4987139;28;20473;-61
2023/03/12 05:43:18;;;;;;;7.78;2.65;;;0.30;99.90;;;;;;4989353;28;20050;-61
2023/03/12 05:45:43;;;;;;;6.93;2.90;;;0.20;99.90;;;;;;4987666;28;20516;-61
2023/03/12 05:48:09;;;;;;;3.15;2.20;;;0.30;99.90;;;;;;4982995;28;20129;-61
2023/03/12 05:50:35;;;;;;;11.73;2.90;;;0.30;99.90;;;;;;4987945;28;20054;-61
2023/03/12 05:53:00;;;;;;;6.05;2.78;;;0.30;99.90;;;;;;4986038;28;20407;-61
2023/03/12 05:55:26;;;;;;;10.13;2.83;;;0.30;99.90;;;;;;4970492;28;20490;-61
2023/03/12 05:57:52;;;;;;;4.40;2.60;;;0.30;99.90;;;;;;4968543;28;20062;-61
2023/03/12 06:00:18;;;;;;;10.13;3.22;;;0.40;99.90;;;;;;4988007;28;20046;-61
2023/03/12 06:02:44;;;;;;;4.72;2.17;;;0.40;99.90;;;;;;4985421;28;20081;-61
2023/03/12 06:05:11;;;;;;;9.35;2.92;;;0.40;99.90;;;;;;4985199;28;20093;-61
2023/03/12 06:07:36;;;;;;;3.08;2.08;;;0.40;99.90;;;;;;4987835;28;20576;-61
2023/03/12 06:10:02;;;;;;;13.00;3.15;;;0.50;99.90;;;;;;4986172;28;20047;-61
2023/03/12 06:12:28;;;;;;;6.65;2.70;;;0.50;99.90;;;;;;4988878;28;20034;-61
2023/03/12 06:14:54;;;;;;;9.73;3.40;;;0.50;99.90;;;;;;4985754;28;20050;-61
2023/03/12 06:17:19;;;;;;;9.07;3.58;;;0.50;99.90;;;;;;4991806;28;20444;-61
2023/03/12 06:19:49;;;;;;;6.43;3.45;;;0.50;99.90;;;;;;4994792;28;20054;-62
2023/03/12 06:22:14;;;;;;;5.25;3.20;;;0.50;99.90;;;;;;4995083;28;20062;-61
2023/03/12 06:24:41;;;;;;;14.48;2.90;;;0.60;99.90;;;;;;5002231;28;20452;-61
2023/03/12 06:27:07;;;;;;;7.43;2.58;;;0.60;99.90;;;;;;5005384;28;20042;-61
2023/03/12 06:29:32;;;;;;;9.13;3.38;;;0.60;99.90;;;;;;5004081;28;20518;-61
2023/03/12 06:31:58;;;;;;;7.10;3.63;;;0.60;99.90;;;;;;4973191;28;20046;-61
2023/03/12 06:34:24;;;;;;;5.25;3.13;;;0.60;99.90;;;;;;4975732;28;20489;-61
2023/03/12 06:36:49;;;;;;;10.00;3.90;;;0.60;99.90;;;;;;4995671;28;20077;-61
2023/03/12 06:39:15;;;;;;;7.13;3.55;;;0.60;99.90;;;;;;5005074;28;20392;-61
2023/03/12 06:41:41;;;;;;;3.33;2.90;;;0.60;99.90;;;;;;4974381;28;20046;-61
2023/03/12 06:44:07;;;;;;;4.65;2.97;;;0.60;99.90;;;;;;5005872;28;20045;-61
2023/03/12 06:46:33;;;;;;;7.45;3.20;;;0.60;99.90;;;;;;4981269;28;20609;-62
2023/03/12 06:48:58;;;;;;;12.15;3.90;;;0.60;99.90;;;;;;4994831;28;20046;-61
2023/03/12 06:51:24;;;;;;;6.47;3.35;;;0.60;99.90;;;;;;5002810;28;20455;-62
2023/03/12 06:53:50;;;;;;;6.50;3.03;;;0.60;99.90;;;;;;4996773;28;20093;-61
2023/03/12 06:56:15;;;;;;;7.95;3.40;;;0.60;99.90;;;;;;5002794;28;20276;-62
2023/03/12 06:58:41;;;;;;;9.35;3.75;;;0.70;99.90;;;;;;4977573;28;20038;-61
2023/03/12 07:01:07;;;;;;;6.07;3.33;;;0.70;99.90;;;;;;5002539;28;20035;-61
2023/03/12 07:03:34;;;;;;;7.95;3.40;;;0.70;99.90;;;;;;5001315;28;20053;-61
2023/03/12 07:06:00;;;;;;;10.93;3.75;;;0.70;99.90;;;;;;4994304;28;20038;-62
2023/03/12 07:08:29;;;;;;;5.40;3.60;;;0.70;99.90;;;;;;4995723;28;20408;-61
2023/03/12 07:10:56;;;;;;;11.05;3.35;;;0.80;99.90;;;;;;4973739;28;20042;-62
2023/03/12 07:13:22;;;;;;;6.57;3.45;;;0.80;99.90;;;;;;4983329;28;20362;-62
2023/03/12 07:15:48;;;;;;;5.82;3.88;;;0.80;99.90;;;;;;4989089;28;20116;-61
2023/03/12 07:18:14;;;;;;;8.68;3.60;;;0.90;99.90;;;;;;4988479;28;20045;-61
2023/03/12 07:20:42;;;;;;;12.95;3.75;;;0.90;99.90;;;;;;4978387;28;20134;-61
2023/03/12 07:23:09;;;;;;;8.25;3.38;;;1.00;99.90;;;;;;4971841;28;20046;-62
2023/03/12 07:25:40;;;;;;;5.63;3.30;;;1.00;99.90;;;;;;4972938;28;20513;-62
2023/03/12 07:28:07;;;;;;;11.27;3.00;;;1.00;99.90;;;;;;4987943;28;20047;-62
2023/03/12 07:30:33;;;;;;;16.17;3.72;;;1.10;99.90;;;;;;4991836;28;20088;-62
2023/03/12 07:33:04;;;;;;;13.15;3.92;;;1.10;99.90;;;;;;4981468;28;20133;-62
2023/03/12 07:35:30;;;;;;;;;;;1.10;99.90;;;;;;4998333;28;20489;-62
2023/03/12 07:37:56;;;;;;;12.85;3.53;;;1.20;99.90;;;;;;4996374;28;20012;-62
2023/03/12 07:40:22;;;;;;;9.38;3.35;;;1.30;99.90;;;;;;4995110;28;20074;-62
2023/03/12 07:42:49;;;;;;;16.20;4.10;;;1.30;99.90;;;;;;4995001;28;20058;-62
2023/03/12 07:45:15;;;;;;;7.55;2.60;;;1.40;99.90;;;;;;4996270;28;20121;-62
2023/03/12 07:47:41;;;;;;;9.43;3.70;;;1.50;99.90;;;;;;4994748;28;20137;-63
2023/03/12 07:50:07;;;;;;;6.65;2.58;;;1.60;99.90;;;;;;4996881;28;20443;-62
2023/03/12 07:52:33;;;;;;;5.43;3.92;;;1.60;99.90;;;;;;4993487;28;20124;-62
2023/03/12 07:54:59;;;;;;;10.43;3.55;;;1.60;99.90;;;;;;4981338;28;20046;-62
2023/03/12 07:57:25;;;;;;;10.40;3.63;;;1.60;99.90;;;;;;4995031;28;20038;-62
2023/03/12 07:59:50;;;;;;;7.68;3.17;;;1.60;99.90;;;;;;4955948;28;20061;-62
2023/03/12 08:02:16;;;;;;;6.38;2.83;;;1.70;99.90;;;;;;4994939;28;20049;-62
2023/03/12 08:04:42;;;;;;;12.27;4.10;;;1.70;99.90;;;;;;4994625;28;20054;-62
2023/03/12 08:07:08;;;;;;;9.38;3.83;;;1.70;99.90;;;;;;4970208;28;20257;-62
2023/03/12 08:09:33;;;;;;;7.53;3.30;;;1.80;99.90;;;;;;4998497;28;20049;-63
2023/03/12 08:11:59;;;;;;;8.95;3.38;;;1.70;99.90;;;;;;4982673;28;20060;-62
2023/03/12 08:14:28;;;;;;;6.35;3.42;;;1.80;99.90;;;;;;4990477;28;20042;-62
2023/03/12 08:16:54;;;;;;;5.43;3.50;;;1.80;99.90;;;;;;4997857;28;20403;-62
2023/03/12 08:19:20;;;;;;;6.15;2.85;;;1.90;99.90;;;;;;4991007;28;20046;-62
2023/03/12 08:21:45;;;;;;;6.63;3.50;;;2.00;99.90;;;;;;4989683;28;20460;-62
2023/03/12 08:24:11;;;;;;;5.47;2.70;;;2.00;99.90;;;;;;4983450;28;20058;-62
2023/03/12 08:26:37;;;;;;;6.63;2.63;;;2.00;99.90;;;;;;4956958;28;20494;-62
2023/03/12 08:29:02;;;;;;;3.90;1.73;;;2.00;99.90;;;;;;4986503;28;20125;-62
2023/03/12 08:31:28;;;;;;;8.43;3.22;;;2.00;99.90;;;;;;4993657;28;20576;-62
2023/03/12 08:33:54;;;;;;;7.93;3.35;;;2.10;99.90;;;;;;4997204;28;20054;-62
2023/03/12 08:36:20;;;;;;;6.90;3.33;;;2.00;99.90;;;;;;4988090;28;20050;-63
2023/03/12 08:38:45;;;;;;;7.53;3.25;;;2.00;99.90;;;;;;4992734;28;20080;-62
2023/03/12 08:41:11;;;;;;;6.00;3.15;;;2.00;99.90;;;;;;4986497;28;20092;-62
2023/03/12 08:43:37;;;;;;;8.73;3.55;;;2.00;99.90;;;;;;4978270;28;20734;-62
2023/03/12 08:46:03;;;;;;;7.93;3.90;;;2.00;99.90;;;;;;4994499;28;20046;-63
2023/03/12 08:48:30;;;;;;;7.13;3.50;;;2.00;99.90;;;;;;4988059;28;20496;-63
2023/03/12 08:50:57;;;;;;;13.52;3.25;;;2.10;99.90;;;;;;4988631;28;20070;-62
2023/03/12 08:53:26;;;;;;;6.38;3.80;;;2.10;99.90;;;;;;4992378;28;20343;-62
2023/03/12 08:55:53;;;;;;;8.52;3.70;;;2.10;99.90;;;;;;5005593;28;20045;-62
2023/03/12 08:58:20;;;;;;;13.18;3.55;;;2.10;99.90;;;;;;4996166;28;20666;-62
2023/03/12 09:00:45;;;;;;;5.88;3.30;;;2.10;99.90;;;;;;5002354;28;20049;-62
2023/03/12 09:03:13;;;;;;;8.80;3.60;;;2.00;99.90;;;;;;4969506;28;20043;-62
2023/03/12 09:05:40;;;;;;;6.82;2.42;;;2.00;99.90;;;;;;4995679;28;20042;-62
2023/03/12 09:08:06;;;;;;;7.07;3.50;;;1.90;99.90;;;;;;4969830;28;20406;-62
2023/03/12 09:10:32;;;;;;;2.60;2.05;;;1.90;99.90;;;;;;4991678;28;20046;-62
2023/03/12 09:12:58;;;;;;;12.40;4.22;;;1.90;99.90;;;;;;4974615;28;20508;-62
2023/03/12 09:15:24;;;;;;;6.38;3.55;;;1.80;99.90;;;;;;4997159;28;20052;-62
2023/03/12 09:17:49;;;;;;;3.45;2.47;;;1.80;99.90;;;;;;4992603;28;20050;-62
2023/03/12 09:20:15;;;;;;;5.78;2.72;;;1.80;99.90;;;;;;4991608;28;20077;-62
2023/03/12 09:22:41;;;;;;;4.35;2.78;;;1.80;99.90;;;;;;4992155;28;20038;-62
2023/03/12 09:25:09;;;;;;;3.08;2.03;;;1.70;99.90;;;;;;4988444;28;20493;-62
2023/03/12 09:27:43;;;;;;;6.25;3.40;;;1.70;99.90;;;;;;4970182;28;20065;-62
2023/03/12 09:30:13;;;;;;;5.47;3.72;;;1.70;99.90;;;;;;4987592;28;20077;-62
2023/03/12 09:32:39;;;;;;;7.67;3.60;;;1.70;99.90;;;;;;4989938;28;20585;-62
2023/03/12 09:35:06;;;;;;;3.83;1.98;;;1.70;99.90;;;;;;4997317;28;20389;-62
2023/03/12 09:37:32;;;;;;;6.93;3.92;;;1.60;99.90;;;;;;4998404;28;20158;-62
2023/03/12 09:39:58;;;;;;;4.25;3.58;;;1.70;99.90;;;;;;4954372;28;20049;-63
2023/03/12 09:42:56;;;;;;;8.02;3.85;;;1.60;99.90;;;;;;4988688;28;20039;-63
2023/03/12 09:45:26;;;;;;;4.32;2.75;;;1.60;99.90;;;;;;4994647;28;20041;-63
2023/03/12 09:47:59;;;;;;;7.18;3.85;;;1.60;99.90;;;;;;4979743;28;20080;-62
2023/03/12 09:50:38;;;;;;;7.65;5.03;;;1.60;99.90;;;;;;4975066;28;20145;-62
2023/03/12 09:53:45;;;;;;;7.83;4.53;;;1.60;99.90;;;;;;4996373;28;20057;-62
2023/03/12 09:56:15;;;;;;;9.93;4.18;;;1.70;99.90;;;;;;4945455;29;20875;-62
2023/03/12 09:58:44;;;;;;;9.18;5.10;;;1.70;99.90;;;;;;4963241;28;20124;-63
2023/03/12 10:01:15;;;;;;;5.72;4.18;;;1.70;99.90;;;;;;4993989;28;20046;-63
2023/03/12 10:03:50;;;;;;;9.52;4.20;;;1.70;99.90;;;;;;4978722;28;20046;-63
2023/03/12 10:06:21;;;;;;;3.88;3.28;;;1.70;99.90;;;;;;4997444;28;20053;-63
2023/03/12 10:09:21;;;;;;;5.22;3.55;;;1.70;99.90;;;;;;4977240;28;20124;-63
2023/03/12 10:12:02;;;;;;;8.05;4.13;;;1.70;99.90;;;;;;4973457;28;20046;-63
2023/03/12 10:14:46;;;;;;;5.30;3.65;;;1.70;99.90;;;;;;4991972;28;20397;-63
2023/03/12 10:17:21;;;;;;;4.50;3.50;;;1.70;99.90;;;;;;5000022;28;20043;-63
2023/03/12 10:19:54;;;;;;;5.00;2.80;;;1.70;99.90;;;;;;5000126;28;20053;-63
2023/03/12 10:22:23;;;;;;;2.35;2.15;;;1.70;99.90;;;;;;4988277;28;20139;-62
2023/03/12 10:25:06;;;;;;;2.90;2.70;;;1.70;99.90;;;;;;4992347;28;20564;-63
2023/03/12 10:27:35;;;;;;;7.20;3.28;;;1.70;99.90;;;;;;4996534;28;20061;-63
2023/03/12 10:30:11;;;;;;;4.57;2.85;;;1.80;99.90;;;;;;5002570;28;20186;-63
2023/03/12 10:32:44;;;;;;;3.42;2.55;;;1.80;99.90;;;;;;5003452;28;20054;-63
2023/03/12 10:35:25;;;;;;;8.18;4.97;;;1.80;99.90;;;;;;4986285;28;20051;-62
2023/03/12 10:37:55;;;;;;;4.43;3.00;;;1.80;99.90;;;;;;4974007;28;20150;-63
2023/03/12 10:40:30;;;;;;;3.95;3.38;;;1.80;99.90;;;;;;4980619;28;20046;-63
2023/03/12 10:42:56;;;;;;;4.38;3.92;;;1.80;99.90;;;;;;4990726;28;20046;-63
2023/03/12 10:45:41;;;;;;;9.43;4.22;;;1.90;99.90;;;;;;5002871;28;20040;-63
2023/03/12 10:48:17;;;;;;;4.70;3.33;;;1.90;99.90;;;;;;4998461;28;20555;-63
2023/03/12 10:50:50;;;;;;;3.95;3.00;;;1.90;99.90;;;;;;4998677;28;20492;-63
2023/03/12 10:53:21;;;;;;;9.50;2.78;;;2.00;99.90;;;;;;4996578;28;20050;-63
2023/03/12 10:56:10;;;;;;;6.43;3.90;;;2.20;99.90;;;;;;4980067;28;20054;-63
2023/03/12 10:58:44;;;;;;;2.47;2.13;;;2.20;99.90;;;;;;4964862;28;20061;-63
2023/03/12 11:01:20;;;;;;;4.75;2.88;;;2.30;99.90;;;;;;5003862;28;20050;-63
2023/03/12 11:03:46;;;;;;;5.68;3.92;;;2.20;99.90;;;;;;4992678;28;20041;-63
2023/03/12 11:06:32;;;;;;;4.90;2.22;;;2.30;99.90;;;;;;5007655;28;20065;-63
2023/03/12 11:09:14;;;;;;;2.92;2.15;;;2.40;99.90;;;;;;4991123;28;20038;-63
2023/03/12 11:11:39;;;;;;;4.30;2.38;;;2.40;99.90;;;;;;4991245;28;20046;-63
2023/03/12 11:14:07;;;;;;;3.45;1.35;;;2.40;99.90;;;;;;4990299;28;20069;-63
2023/03/12 11:16:32;;;;;;;2.33;1.80;;;2.40;99.90;;;;;;4988813;28;20054;-63
2023/03/12 11:19:03;;;;;;;2.63;2.42;;;2.40;99.90;;;;;;4990664;28;20042;-64
2023/03/12 11:21:35;;;;;;;4.63;2.28;;;2.40;99.90;;;;;;5003271;28;20104;-64
2023/03/12 11:24:14;;;;;;;5.40;2.80;;;2.40;99.90;;;;;;4994194;28;20062;-64
2023/03/12 11:26:48;;;;;;;2.67;2.22;;;2.40;99.90;;;;;;4991164;28;20054;-64
2023/03/12 11:29:32;;;;;;;3.40;3.08;;;2.40;99.90;;;;;;4994055;28;20050;-64
2023/03/12 11:32:18;;;;;;;7.35;4.68;;;2.40;99.90;;;;;;4974744;28;20505;-64
2023/03/12 11:34:48;;;;;;;4.95;2.92;;;2.40;99.90;;;;;;4989052;28;20066;-64
2023/03/12 11:37:33;;;;;;;3.42;3.05;;;2.40;99.90;;;;;;5000365;28;20050;-64
2023/03/12 11:40:18;;;;;;;1.45;1.35;;;2.50;99.90;;;;;;4985701;28;20046;-63
2023/03/12 11:43:04;;;;;;;2.72;2.17;;;2.50;99.90;;;;;;5000544;28;20053;-63
2023/03/12 11:45:45;;;;;;;3.55;3.28;;;2.50;99.90;;;;;;4992013;28;20126;-64
2023/03/12 11:48:45;;;;;;;7.55;3.47;;;2.60;99.90;;;;;;4992935;28;20121;-63
2023/03/12 11:51:32;;;;;;;3.70;3.15;;;2.60;99.90;;;;;;4991990;28;20034;-63
2023/03/12 11:54:21;;;;;;;2.20;2.00;;;2.70;99.90;;;;;;4997065;28;20045;-63
2023/03/12 11:57:03;;;;;;;2.90;2.60;;;2.70;99.90;;;;;;4991632;28;20176;-63
2023/03/12 11:59:35;;;;;;;2.80;2.60;;;2.70;99.90;;;;;;4998774;28;20097;-64
2023/03/12 12:02:12;;;;;;;5.18;3.28;;;2.70;99.90;;;;;;4975632;28;20050;-63
2023/03/12 12:04:50;;;;;;;7.00;5.28;;;2.70;99.90;;;;;;4993388;28;20535;-64
2023/03/12 12:07:37;;;;;;;8.85;4.93;;;2.80;99.90;;;;;;4998130;28;20532;-63
2023/03/12 12:10:28;;;;;;;5.47;3.28;;;2.80;99.90;;;;;;4993622;28;20064;-63
2023/03/12 12:13:05;;;;;;;8.38;5.00;;;2.80;99.90;;;;;;4987398;28;20050;-63
2023/03/12 12:15:44;;;;;;;5.30;4.78;;;2.90;99.90;;;;;;4992251;28;20559;-63
2023/03/12 12:18:34;;;;;;;8.48;5.10;;;3.00;99.90;;;;;;4990934;28;20437;-63
2023/03/12 12:21:45;;;;;;;5.63;5.00;;;3.00;99.90;;;;;;4989134;28;20072;-63
2023/03/12 12:24:17;;;;;;;;;;;3.00;99.90;;;;;;4972759;28;20049;-64
2023/03/12 12:26:48;;;;;;;4.20;2.92;;;3.10;99.90;;;;;;4991300;28;19933;-63
2023/03/12 12:29:19;;;;;;;10.43;4.53;;;3.20;99.90;;;;;;5000373;28;20518;-64
2023/03/12 12:31:55;;;;;;;5.07;4.63;;;3.20;99.90;;;;;;5000092;28;20500;-63
2023/03/12 12:34:42;;;;;;;4.32;3.22;;;3.30;99.90;;;;;;4993613;28;20125;-63
2023/03/12 12:37:30;;;;;;;12.02;5.57;;;3.30;99.90;;;;;;4998593;28;20053;-63
2023/03/12 12:40:12;;;;;;;9.10;4.15;;;3.40;99.90;;;;;;4997203;28;20046;-63
2023/03/12 12:42:55;;;;;;;4.95;3.85;;;3.40;99.90;;;;;;4981045;28;20129;-63
2023/03/12 12:45:23;;;;;;;6.93;4.65;;;3.50;99.90;;;;;;4989282;28;20045;-63
2023/03/12 12:47:58;;;;;;;8.40;5.28;;;3.60;99.90;;;;;;4975323;28;20054;-64
2023/03/12 12:50:28;;;;;;;10.55;5.80;;;3.60;99.90;;;;;;4988987;28;20054;-63
2023/03/12 12:53:02;;;;;;;11.65;5.97;;;3.60;99.90;;;;;;4981386;28;20068;-63
2023/03/12 12:55:38;;;;;;;6.07;3.60;;;3.70;99.90;;;;;;4976335;28;20056;-63
2023/03/12 12:58:24;;;;;;;10.40;5.82;;;3.80;99.90;;;;;;5006456;28;20065;-63
2023/03/12 13:00:58;;;;;;;10.43;5.95;;;3.80;99.90;;;;;;4992923;28;20075;-63
2023/03/12 13:03:26;;;;;;;7.97;5.45;;;3.80;99.90;;;;;;4986773;28;20519;-63
2023/03/12 13:05:51;;;;;;;13.80;7.05;;;3.80;99.90;;;;;;4975905;28;20120;-63